createdAt,value
2023-05-07T00:01:41.155Z,95101.09
2023-05-07T00:04:10.328Z,95104.41
2023-05-07T00:06:39.699Z,95104.63
2023-05-07T00:09:09.274Z,95097.94
2023-05-07T00:11:38.596Z,95096.19
2023-05-07T00:14:09.304Z,95097.22
2023-05-07T00:16:38.434Z,95100.06
2023-05-07T00:19:07.579Z,95097.22
2023-05-07T00:21:36.702Z,95094.06
2023-05-07T00:24:06.198Z,95088.84
2023-05-07T00:26:35.234Z,95093.09
2023-05-07T00:29:04.414Z,95089.63
2023-05-07T00:31:35.112Z,95087.44
2023-05-07T00:34:04.299Z,95094.13
2023-05-07T00:36:33.493Z,95098.22
2023-05-07T00:39:04.882Z,95092.38
2023-05-07T00:41:33.934Z,95098.31
2023-05-07T00:44:03.731Z,95098.31
2023-05-07T00:46:35.377Z,95094.56
2023-05-07T00:49:04.992Z,95094.06
2023-05-07T00:51:35.781Z,95088.19
2023-05-07T00:54:06.159Z,95096.97
2023-05-07T00:56:35.269Z,95094.00
2023-05-07T00:59:05.089Z,95102.34
2023-05-07T01:01:35.747Z,95097.88
2023-05-07T01:04:05.162Z,95103.59
2023-05-07T01:06:35.897Z,95100.50
2023-05-07T01:09:06.239Z,95097.44
2023-05-07T01:11:36.070Z,95085.41
2023-05-07T01:14:05.674Z,95090.84
2023-05-07T01:16:36.977Z,95096.03
2023-05-07T01:19:06.601Z,95093.59
2023-05-07T01:21:36.582Z,95092.97
2023-05-07T01:24:09.122Z,95096.84
2023-05-07T01:26:38.262Z,95100.44
2023-05-07T01:29:07.363Z,95093.41
2023-05-07T01:31:38.788Z,95097.31
2023-05-07T01:34:10.994Z,95092.88
2023-05-07T01:36:42.572Z,95102.56
2023-05-07T01:39:13.653Z,95100.25
2023-05-07T01:41:42.813Z,95097.09
2023-05-07T01:44:15.111Z,95099.41
2023-05-07T01:46:44.402Z,95094.56
2023-05-07T01:49:13.728Z,95100.84
2023-05-07T01:51:43.119Z,95089.28
2023-05-07T01:54:13.901Z,95100.44
2023-05-07T01:56:43.474Z,95100.69
2023-05-07T01:59:12.690Z,95100.59
2023-05-07T02:01:42.136Z,95108.00
2023-05-07T02:04:13.305Z,95106.66
2023-05-07T02:06:42.724Z,95104.63
2023-05-07T02:09:16.498Z,95106.38
2023-05-07T02:11:50.185Z,95111.53
2023-05-07T02:14:21.874Z,95105.81
2023-05-07T02:16:51.360Z,95101.09
2023-05-07T02:19:22.408Z,95109.03
2023-05-07T02:21:52.225Z,95101.09
2023-05-07T02:24:22.779Z,95107.41
2023-05-07T02:26:51.980Z,95103.28
2023-05-07T02:29:21.269Z,95109.31
2023-05-07T02:31:52.043Z,95106.81
2023-05-07T02:34:21.665Z,95107.63
2023-05-07T02:36:50.730Z,95110.44
2023-05-07T02:39:25.152Z,95117.81
2023-05-07T02:41:54.374Z,95121.03
2023-05-07T02:44:23.576Z,95114.88
2023-05-07T02:46:54.250Z,95107.75
2023-05-07T02:49:23.559Z,95111.09
2023-05-07T02:51:52.762Z,95108.59
2023-05-07T02:54:27.552Z,95106.16
2023-05-07T02:56:57.562Z,95105.38
2023-05-07T02:59:27.515Z,95116.22
2023-05-07T03:01:56.910Z,95112.00
2023-05-07T03:04:26.040Z,95115.25
2023-05-07T03:06:55.164Z,95122.09
2023-05-07T03:09:24.261Z,95117.22
2023-05-07T03:11:54.994Z,95119.31
2023-05-07T03:14:24.324Z,95130.03
2023-05-07T03:16:53.599Z,95134.28
2023-05-07T03:19:22.730Z,95133.03
2023-05-07T03:21:51.914Z,95123.59
2023-05-07T03:24:21.115Z,95113.59
2023-05-07T03:26:50.548Z,95124.66
2023-05-07T03:29:21.282Z,95129.94
2023-05-07T03:31:50.646Z,95127.31
2023-05-07T03:34:23.304Z,95131.03
2023-05-07T03:36:52.777Z,95129.88
2023-05-07T03:39:22.432Z,95138.34
2023-05-07T03:41:51.689Z,95140.78
2023-05-07T03:44:22.980Z,95141.41
2023-05-07T03:46:53.904Z,95142.88
2023-05-07T03:49:23.069Z,95143.22
2023-05-07T03:51:52.178Z,95141.78
2023-05-07T03:54:21.497Z,95143.41
2023-05-07T03:56:50.566Z,95141.16
2023-05-07T03:59:19.719Z,95149.84
2023-05-07T04:01:52.249Z,95155.50
2023-05-07T04:04:24.688Z,95150.81
2023-05-07T04:06:54.331Z,95158.91
2023-05-07T04:09:24.822Z,95159.47
2023-05-07T04:11:54.027Z,95170.00
2023-05-07T04:14:23.150Z,95173.25
2023-05-07T04:16:53.709Z,95171.38
2023-05-07T04:19:23.104Z,95177.44
2023-05-07T04:21:55.422Z,95177.00
2023-05-07T04:24:25.237Z,95178.78
2023-05-07T04:26:56.376Z,95186.84
2023-05-07T04:29:26.146Z,95189.00
2023-05-07T04:32:00.065Z,95184.69
2023-05-07T04:34:30.451Z,95192.38
2023-05-07T04:37:01.796Z,95184.72
2023-05-07T04:39:31.134Z,95180.81
2023-05-07T04:42:00.397Z,95184.84
2023-05-07T04:44:32.267Z,95190.22
2023-05-07T04:47:02.752Z,95188.47
2023-05-07T04:49:31.986Z,95192.03
2023-05-07T04:52:02.273Z,95194.63
2023-05-07T04:54:31.425Z,95192.00
2023-05-07T04:57:00.488Z,95184.88
2023-05-07T04:59:29.733Z,95186.69
2023-05-07T05:01:59.060Z,95189.09
2023-05-07T05:04:30.151Z,95194.34
2023-05-07T05:07:00.347Z,95179.91
2023-05-07T05:09:30.601Z,95188.44
2023-05-07T05:11:59.810Z,95189.06
2023-05-07T05:14:29.573Z,95188.19
2023-05-07T05:16:58.847Z,95179.78
2023-05-07T05:19:29.958Z,95189.94
2023-05-07T05:21:59.260Z,95195.22
2023-05-07T05:24:28.393Z,95187.44
2023-05-07T05:26:57.636Z,95184.41
2023-05-07T05:29:27.512Z,95190.13
2023-05-07T05:31:57.055Z,95181.41
2023-05-07T05:34:27.844Z,95184.19
2023-05-07T05:36:59.078Z,95189.63
2023-05-07T05:39:28.713Z,95194.22
2023-05-07T05:41:58.117Z,95198.25
2023-05-07T05:44:27.914Z,95199.94
2023-05-07T05:46:58.938Z,95202.22
2023-05-07T05:49:28.664Z,95204.53
2023-05-07T05:51:59.440Z,95206.28
2023-05-07T05:54:30.603Z,95200.66
2023-05-07T05:57:00.032Z,95200.34
2023-05-07T05:59:29.259Z,95206.53
2023-05-07T06:01:58.484Z,95199.88
2023-05-07T06:04:27.883Z,95209.09
2023-05-07T06:06:59.331Z,95200.47
2023-05-07T06:09:29.017Z,95202.63
2023-05-07T06:12:00.475Z,95210.75
2023-05-07T06:14:32.347Z,95204.19
2023-05-07T06:17:01.766Z,95202.59
2023-05-07T06:19:31.000Z,95208.53
2023-05-07T06:22:03.838Z,95211.03
2023-05-07T06:24:34.719Z,95199.88
2023-05-07T06:27:04.236Z,95189.81
2023-05-07T06:29:35.113Z,95190.16
2023-05-07T06:32:10.393Z,95177.59
2023-05-07T06:34:43.652Z,95179.72
2023-05-07T06:37:14.573Z,95183.78
2023-05-07T06:40:06.717Z,95172.31
2023-05-07T06:42:38.776Z,95169.63
2023-05-07T06:45:46.474Z,95169.91
2023-05-07T06:48:16.340Z,95164.28
2023-05-07T06:50:58.974Z,95165.91
2023-05-07T06:53:31.892Z,95164.63
2023-05-07T06:56:03.112Z,95172.91
2023-05-07T06:58:32.944Z,95167.25
2023-05-07T07:01:03.487Z,95170.75
2023-05-07T07:03:34.232Z,95173.66
2023-05-07T07:06:04.480Z,95169.88
2023-05-07T07:08:35.781Z,95169.03
2023-05-07T07:11:05.218Z,95177.81
2023-05-07T07:13:34.781Z,95164.06
2023-05-07T07:16:04.229Z,95168.28
2023-05-07T07:18:33.468Z,95170.69
2023-05-07T07:21:02.725Z,95173.00
2023-05-07T07:23:31.824Z,95175.34
2023-05-07T07:26:02.732Z,95177.66
2023-05-07T07:28:32.206Z,95174.78
2023-05-07T07:31:01.524Z,95169.97
2023-05-07T07:33:32.634Z,95169.97
2023-05-07T07:36:01.730Z,95176.13
2023-05-07T07:38:30.911Z,95176.88
2023-05-07T07:41:01.831Z,95170.00
2023-05-07T07:43:32.505Z,95181.94
2023-05-07T07:46:01.821Z,95180.53
2023-05-07T07:48:31.433Z,95184.69
2023-05-07T07:51:01.826Z,95195.25
2023-05-07T07:53:31.717Z,95185.41
2023-05-07T07:56:05.621Z,95183.59
2023-05-07T07:58:38.618Z,95172.78
2023-05-07T08:01:08.415Z,95170.25
2023-05-07T08:03:37.957Z,95172.72
2023-05-07T08:06:07.487Z,95166.44
2023-05-07T08:08:38.358Z,95164.13
2023-05-07T08:11:09.237Z,95160.31
2023-05-07T08:13:40.544Z,95157.41
2023-05-07T08:16:09.918Z,95142.34
2023-05-07T08:18:40.007Z,95146.81
2023-05-07T08:21:09.329Z,95148.34
2023-05-07T08:23:38.520Z,95147.91
2023-05-07T08:26:10.435Z,95145.91
2023-05-07T08:28:40.803Z,95147.91
2023-05-07T08:31:10.962Z,95135.91
2023-05-07T08:33:43.246Z,95140.63
2023-05-07T08:36:12.488Z,95137.53
2023-05-07T08:38:44.118Z,95133.81
2023-05-07T08:41:15.046Z,95142.78
2023-05-07T08:43:50.692Z,95123.41
2023-05-07T08:46:23.314Z,95125.31
2023-05-07T08:48:57.237Z,95128.72
2023-05-07T08:51:26.958Z,95114.34
2023-05-07T08:53:56.818Z,95112.69
2023-05-07T08:56:34.168Z,95115.31
2023-05-07T08:59:03.582Z,95114.78
2023-05-07T09:01:33.144Z,95114.84
2023-05-07T09:04:03.385Z,95119.66
2023-05-07T09:06:33.146Z,95112.34
2023-05-07T09:09:06.489Z,95117.75
2023-05-07T09:11:38.010Z,95097.78
2023-05-07T09:14:07.593Z,95106.22
2023-05-07T09:16:42.566Z,95106.34
2023-05-07T09:19:12.153Z,95104.81
2023-05-07T09:21:47.290Z,95094.66
2023-05-07T09:24:18.762Z,95093.88
2023-05-07T09:26:49.594Z,95091.81
2023-05-07T09:29:19.919Z,95087.84
2023-05-07T09:31:49.203Z,95089.94
2023-05-07T09:34:20.977Z,95086.09
2023-05-07T09:36:51.475Z,95087.53
2023-05-07T09:39:20.909Z,95086.84
2023-05-07T09:41:52.553Z,95085.06
2023-05-07T09:44:28.076Z,95066.41
2023-05-07T09:46:59.149Z,95075.03
2023-05-07T09:49:38.475Z,95068.13
2023-05-07T09:52:12.741Z,95060.59
2023-05-07T09:54:49.593Z,95067.75
2023-05-07T09:57:21.852Z,95065.47
2023-05-07T09:59:58.334Z,95059.94
2023-05-07T10:02:32.986Z,95059.19
2023-05-07T10:05:04.870Z,95062.59
2023-05-07T10:07:36.903Z,95051.53
2023-05-07T10:10:11.180Z,95053.34
2023-05-07T10:12:47.612Z,95049.50
2023-05-07T10:15:25.980Z,95045.22
2023-05-07T10:17:58.839Z,95043.22
2023-05-07T10:20:30.604Z,95041.88
2023-05-07T10:23:01.035Z,95043.09
2023-05-07T10:25:38.362Z,95038.59
2023-05-07T10:28:22.111Z,95039.19
2023-05-07T10:31:03.891Z,95034.13
2023-05-07T10:33:42.130Z,95040.88
2023-05-07T10:36:12.512Z,95041.34
2023-05-07T10:38:42.593Z,95033.41
2023-05-07T10:41:13.700Z,95023.94
2023-05-07T10:43:47.066Z,95022.63
2023-05-07T10:46:25.419Z,95022.16
2023-05-07T10:49:21.006Z,95017.00
2023-05-07T10:52:15.767Z,95019.91
2023-05-07T10:55:22.765Z,95023.72
2023-05-07T11:01:13.911Z,95017.78
2023-05-07T11:04:14.029Z,95011.13
2023-05-07T11:06:44.965Z,95007.59
2023-05-07T11:09:14.162Z,95005.94
2023-05-07T11:11:57.156Z,95005.28
2023-05-07T11:14:47.435Z,95013.81
2023-05-07T11:17:54.205Z,95006.47
2023-05-07T11:20:44.693Z,95012.69
2023-05-07T11:23:59.228Z,95003.88
2023-05-07T11:26:50.209Z,95000.91
2023-05-07T11:29:23.151Z,95002.38
2023-05-07T11:31:59.042Z,95000.25
2023-05-07T11:34:35.254Z,94992.81
2023-05-07T11:37:05.673Z,94990.56
2023-05-07T11:39:55.615Z,94988.22
2023-05-07T11:42:28.532Z,94986.94
2023-05-07T11:44:57.386Z,94978.06
2023-05-07T11:47:27.790Z,94985.94
2023-05-07T11:49:58.912Z,94989.50
2023-05-07T11:52:28.110Z,94990.63
2023-05-07T11:54:58.846Z,94982.69
2023-05-07T11:57:29.392Z,94987.00
2023-05-07T11:59:58.882Z,94991.69
2023-05-07T12:02:29.510Z,94985.00
2023-05-07T12:05:03.838Z,94976.00
2023-05-07T12:07:36.560Z,94980.63
2023-05-07T12:10:08.203Z,94977.66
2023-05-07T12:12:43.329Z,94970.88
2023-05-07T12:15:13.151Z,94959.13
2023-05-07T12:17:43.538Z,94971.88
2023-05-07T12:20:15.846Z,94959.94
2023-05-07T12:22:45.852Z,94956.72
2023-05-07T12:25:16.393Z,94957.19
2023-05-07T12:27:45.795Z,94960.19
2023-05-07T12:30:16.063Z,94956.38
2023-05-07T12:32:48.224Z,94953.53
2023-05-07T12:35:19.114Z,94942.44
2023-05-07T12:37:57.658Z,94943.59
2023-05-07T12:40:26.854Z,94937.91
2023-05-07T12:42:58.544Z,94941.63
2023-05-07T12:45:29.692Z,94941.81
2023-05-07T12:47:59.341Z,94931.09
2023-05-07T12:50:34.563Z,94926.78
2023-05-07T12:53:07.399Z,94927.94
2023-05-07T12:55:45.131Z,94914.28
2023-05-07T12:58:19.193Z,94918.75
2023-05-07T13:00:51.016Z,94922.56
2023-05-07T13:03:27.621Z,94911.44
2023-05-07T13:06:00.208Z,94914.78
2023-05-07T13:08:32.604Z,94913.69
2023-05-07T13:11:04.934Z,94913.38
2023-05-07T13:13:35.482Z,94915.78
2023-05-07T13:16:05.624Z,94911.22
2023-05-07T13:18:35.920Z,94910.19
2023-05-07T13:21:06.945Z,94897.50
2023-05-07T13:23:36.756Z,94890.66
2023-05-07T13:26:14.561Z,94901.19
2023-05-07T13:28:48.260Z,94887.63
2023-05-07T13:31:17.467Z,94893.31
2023-05-07T13:33:46.673Z,94891.59
2023-05-07T13:36:17.616Z,94891.88
2023-05-07T13:38:49.677Z,94897.34
2023-05-07T13:41:18.857Z,94886.66
2023-05-07T13:43:47.999Z,94889.50
2023-05-07T13:46:17.673Z,94889.41
2023-05-07T13:48:46.853Z,94889.25
2023-05-07T13:51:18.285Z,94889.13
2023-05-07T13:53:47.524Z,94885.16
2023-05-07T13:56:16.993Z,94886.16
2023-05-07T13:58:58.837Z,94887.13
2023-05-07T14:01:30.379Z,94892.28
2023-05-07T14:04:00.848Z,94891.63
2023-05-07T14:06:32.540Z,94888.19
2023-05-07T14:09:01.894Z,94888.47
2023-05-07T14:11:33.296Z,94885.53
2023-05-07T14:14:03.128Z,94883.16
2023-05-07T14:16:32.346Z,94887.41
2023-05-07T14:19:01.687Z,94882.00
2023-05-07T14:21:33.189Z,94879.63
2023-05-07T14:24:02.548Z,94878.75
2023-05-07T14:26:31.972Z,94878.25
2023-05-07T14:29:01.160Z,94875.38
2023-05-07T14:31:34.344Z,94880.47
2023-05-07T14:34:03.729Z,94870.44
2023-05-07T14:36:34.462Z,94867.91
2023-05-07T14:39:03.776Z,94869.84
2023-05-07T14:41:34.368Z,94873.25
2023-05-07T14:44:05.287Z,94867.06
2023-05-07T14:46:34.468Z,94871.50
2023-05-07T14:49:05.101Z,94866.13
2023-05-07T14:51:35.773Z,94872.78
2023-05-07T14:54:05.382Z,94864.34
2023-05-07T14:56:34.571Z,94875.38
2023-05-07T14:59:05.028Z,94874.38
2023-05-07T15:01:34.785Z,94876.78
2023-05-07T15:04:05.460Z,94875.03
2023-05-07T15:06:36.290Z,94876.63
2023-05-07T15:09:05.721Z,94868.50
2023-05-07T15:11:34.956Z,94874.25
2023-05-07T15:14:05.506Z,94863.13
2023-05-07T15:16:35.410Z,94867.38
2023-05-07T15:19:04.702Z,94872.34
2023-05-07T15:21:35.907Z,94863.59
2023-05-07T15:24:07.058Z,94862.44
2023-05-07T15:26:36.664Z,94859.91
2023-05-07T15:29:11.454Z,94859.59
2023-05-07T15:31:41.269Z,94857.19
2023-05-07T15:34:10.488Z,94862.16
2023-05-07T15:36:39.675Z,94856.75
2023-05-07T15:39:11.206Z,94854.03
2023-05-07T15:41:40.356Z,94852.59
2023-05-07T15:44:09.597Z,94854.34
2023-05-07T15:46:38.930Z,94844.50
2023-05-07T15:49:08.612Z,94843.50
2023-05-07T15:51:37.992Z,94843.81
2023-05-07T15:54:07.433Z,94842.25
2023-05-07T15:56:37.785Z,94838.94
2023-05-07T15:59:07.962Z,94838.94
2023-05-07T16:01:37.270Z,94840.88
2023-05-07T16:04:06.830Z,94837.59
2023-05-07T16:06:36.282Z,94836.78
2023-05-07T16:09:05.669Z,94842.84
2023-05-07T16:11:34.823Z,94842.84
2023-05-07T16:14:05.858Z,94846.16
2023-05-07T16:16:36.851Z,94848.56
2023-05-07T16:19:06.341Z,94843.94
2023-05-07T16:21:35.777Z,94842.50
2023-05-07T16:24:05.413Z,94839.31
2023-05-07T16:26:34.655Z,94838.84
2023-05-07T16:29:07.152Z,94842.03
2023-05-07T16:31:36.954Z,94838.03
2023-05-07T16:34:06.419Z,94842.94
2023-05-07T16:36:35.932Z,94847.53
2023-05-07T16:39:05.837Z,94842.41
2023-05-07T16:41:35.289Z,94848.72
2023-05-07T16:44:06.123Z,94846.13
2023-05-07T16:46:35.670Z,94847.53
2023-05-07T16:49:05.042Z,94849.88
2023-05-07T16:51:36.320Z,94852.56
2023-05-07T16:54:05.704Z,94859.03
2023-05-07T16:56:34.954Z,94860.84
2023-05-07T16:59:07.569Z,94862.34
2023-05-07T17:01:36.969Z,94866.78
2023-05-07T17:04:06.389Z,94859.59
2023-05-07T17:06:36.809Z,94870.59
2023-05-07T17:09:06.177Z,94868.34
2023-05-07T17:11:35.464Z,94870.97
2023-05-07T17:14:06.600Z,94863.94
2023-05-07T17:16:36.065Z,94868.81
2023-05-07T17:19:05.267Z,94874.75
2023-05-07T17:21:34.554Z,94871.84
2023-05-07T17:24:04.331Z,94871.25
2023-05-07T17:26:36.601Z,94874.97
2023-05-07T17:29:07.433Z,94869.81
2023-05-07T17:31:36.966Z,94875.81
2023-05-07T17:34:06.563Z,94872.53
2023-05-07T17:36:35.939Z,94879.41
2023-05-07T17:39:05.810Z,94884.38
2023-05-07T17:41:37.608Z,94884.00
2023-05-07T17:44:08.479Z,94891.06
2023-05-07T17:46:37.809Z,94900.56
2023-05-07T17:49:07.017Z,94900.75
2023-05-07T17:51:49.892Z,94904.03
2023-05-07T17:54:27.173Z,94913.94
2023-05-07T17:56:56.615Z,94911.72
2023-05-07T17:59:27.385Z,94914.31
2023-05-07T18:01:57.127Z,94917.75
2023-05-07T18:04:28.473Z,94926.66
2023-05-07T18:06:58.506Z,94918.16
2023-05-07T18:09:27.867Z,94933.28
2023-05-07T18:11:57.276Z,94932.94
2023-05-07T18:14:28.333Z,94938.91
2023-05-07T18:16:57.815Z,94945.03
2023-05-07T18:19:28.362Z,94942.91
2023-05-07T18:21:58.829Z,94952.69
2023-05-07T18:24:29.837Z,94960.09
2023-05-07T18:27:00.330Z,94972.47
2023-05-07T18:29:31.602Z,94963.38
2023-05-07T18:32:01.754Z,94959.69
2023-05-07T18:34:31.718Z,94967.94
2023-05-07T18:37:02.077Z,94958.94
2023-05-07T18:39:32.814Z,94968.06
2023-05-07T18:42:05.690Z,94968.41
2023-05-07T18:44:38.907Z,94963.31
2023-05-07T18:47:08.768Z,94970.31
2023-05-07T18:49:39.225Z,94976.84
2023-05-07T18:52:09.317Z,94977.88
2023-05-07T18:54:39.492Z,94983.28
2023-05-07T18:57:09.647Z,94985.78
2023-05-07T18:59:41.576Z,94987.97
2023-05-07T19:02:14.404Z,94974.91
2023-05-07T19:04:45.310Z,94976.00
2023-05-07T19:07:19.591Z,94986.56
2023-05-07T19:10:04.866Z,94990.66
2023-05-07T19:12:48.251Z,94996.56
2023-05-07T19:15:20.096Z,94988.84
2023-05-07T19:17:50.394Z,95000.91
2023-05-07T19:20:20.593Z,95001.53
2023-05-07T19:22:53.472Z,94998.84
2023-05-07T19:25:29.025Z,94999.75
2023-05-07T19:28:02.289Z,95007.34
2023-05-07T19:30:35.112Z,95007.66
2023-05-07T19:33:04.933Z,95012.81
2023-05-07T19:35:36.683Z,95013.88
2023-05-07T19:38:06.777Z,95012.38
2023-05-07T19:40:37.291Z,95007.88
2023-05-07T19:43:07.538Z,95008.13
2023-05-07T19:45:43.196Z,95012.44
2023-05-07T19:48:13.802Z,95018.38
2023-05-07T19:50:43.686Z,95018.09
2023-05-07T19:53:12.980Z,95011.13
2023-05-07T19:55:42.459Z,95015.41
2023-05-07T19:58:11.655Z,95024.78
2023-05-07T20:00:43.350Z,95019.19
2023-05-07T20:03:18.632Z,95025.84
2023-05-07T20:05:48.693Z,95024.00
2023-05-07T20:08:18.388Z,95027.22
2023-05-07T20:10:47.565Z,95032.81
2023-05-07T20:13:16.928Z,95030.69
2023-05-07T20:15:48.092Z,95034.16
2023-05-07T20:18:17.364Z,95036.28
2023-05-07T20:20:47.100Z,95039.50
2023-05-07T20:23:16.422Z,95044.84
2023-05-07T20:25:46.516Z,95045.84
2023-05-07T20:28:15.757Z,95043.22
2023-05-07T20:30:45.152Z,95052.03
2023-05-07T20:33:15.877Z,95056.03
2023-05-07T20:35:45.464Z,95048.56
2023-05-07T20:38:14.704Z,95046.13
2023-05-07T20:40:43.834Z,95047.38
2023-05-07T20:43:13.124Z,95046.81
2023-05-07T20:45:42.599Z,95054.03
2023-05-07T20:48:11.745Z,95049.19
2023-05-07T20:50:42.424Z,95048.91
2023-05-07T20:53:11.902Z,95053.34
2023-05-07T20:55:41.138Z,95046.47
2023-05-07T20:58:10.332Z,95047.47
2023-05-07T21:00:39.974Z,95053.28
2023-05-07T21:03:09.626Z,95051.63
2023-05-07T21:05:38.841Z,95054.81
2023-05-07T21:08:09.456Z,95057.50
2023-05-07T21:10:38.773Z,95063.31
2023-05-07T21:13:08.002Z,95068.72
2023-05-07T21:15:37.180Z,95060.47
2023-05-07T21:18:06.567Z,95061.22
2023-05-07T21:20:35.853Z,95073.22
2023-05-07T21:23:05.590Z,95068.16
2023-05-07T21:25:39.321Z,95076.84
2023-05-07T21:28:09.454Z,95079.50
2023-05-07T21:30:38.815Z,95079.81
2023-05-07T21:33:08.835Z,95081.34
2023-05-07T21:35:38.069Z,95083.31
2023-05-07T21:38:07.321Z,95078.66
2023-05-07T21:40:38.498Z,95085.81
2023-05-07T21:43:07.752Z,95081.34
2023-05-07T21:45:37.065Z,95084.97
2023-05-07T21:48:06.764Z,95095.81
2023-05-07T21:50:36.215Z,95090.72
2023-05-07T21:53:05.339Z,95093.00
2023-05-07T21:55:34.395Z,95090.69
2023-05-07T21:58:06.258Z,95096.19
2023-05-07T22:00:35.614Z,95097.78
2023-05-07T22:03:05.137Z,95101.28
2023-05-07T22:05:34.403Z,95092.44
2023-05-07T22:08:03.544Z,95091.66
2023-05-07T22:10:33.032Z,95095.50
2023-05-07T22:13:02.444Z,95088.91
2023-05-07T22:15:35.442Z,95092.06
2023-05-07T22:18:06.670Z,95093.50
2023-05-07T22:20:35.925Z,95096.19
2023-05-07T22:23:05.368Z,95095.50
2023-05-07T22:25:35.851Z,95105.56
2023-05-07T22:28:05.373Z,95097.22
2023-05-07T22:30:35.877Z,95101.97
2023-05-07T22:33:05.276Z,95098.13
2023-05-07T22:35:34.396Z,95104.63
2023-05-07T22:38:03.639Z,95094.47
2023-05-07T22:40:32.835Z,95105.47
2023-05-07T22:43:01.877Z,95093.78
2023-05-07T22:45:31.185Z,95093.78
2023-05-07T22:48:01.744Z,95094.03
2023-05-07T22:50:31.095Z,95105.41
2023-05-07T22:53:00.069Z,95106.66
2023-05-07T22:55:29.457Z,95101.00
2023-05-07T22:58:01.687Z,95100.63
2023-05-07T23:00:30.947Z,95101.09
2023-05-07T23:03:01.601Z,95098.91
2023-05-07T23:05:30.768Z,95096.03
2023-05-07T23:07:59.955Z,95088.06
2023-05-07T23:10:29.068Z,95092.94
2023-05-07T23:12:58.232Z,95098.91
2023-05-07T23:15:27.611Z,95090.53
2023-05-07T23:17:56.957Z,95081.38
2023-05-07T23:20:27.565Z,95082.66
2023-05-07T23:22:57.135Z,95076.63
2023-05-07T23:25:26.559Z,95078.28
2023-05-07T23:27:55.680Z,95072.00
2023-05-07T23:30:24.914Z,95079.75
2023-05-07T23:32:54.285Z,95074.44
2023-05-07T23:35:23.800Z,95066.84
2023-05-07T23:37:54.501Z,95060.31
2023-05-07T23:40:23.792Z,95066.84
2023-05-07T23:42:52.811Z,95072.38
2023-05-07T23:45:22.077Z,95064.69
2023-05-07T23:47:51.642Z,95063.72
2023-05-07T23:50:20.936Z,95072.88
2023-05-07T23:52:49.994Z,95069.56
2023-05-07T23:55:20.503Z,95058.16
2023-05-07T23:57:49.991Z,95052.84
